createdAt,value
2019-06-26T00:03:02.483Z,214.82
2019-06-26T00:07:14.461Z,197.35
2019-06-26T00:11:24.807Z,201.90
2019-06-26T00:15:35.148Z,196.65
2019-06-26T00:19:45.520Z,198.50
2019-06-26T00:23:56.069Z,196.12
2019-06-26T00:28:06.411Z,199.65
2019-06-26T00:32:16.719Z,196.15
2019-06-26T00:36:27.031Z,200.20
2019-06-26T00:40:37.439Z,201.75
2019-06-26T00:44:48.976Z,195.97
2019-06-26T00:48:59.318Z,198.00
2019-06-26T00:53:09.724Z,200.13
2019-06-26T00:57:20.064Z,199.00
2019-06-26T01:01:30.433Z,202.20
2019-06-26T01:05:41.539Z,196.55
2019-06-26T01:09:51.879Z,195.50
2019-06-26T01:14:02.177Z,201.60
2019-06-26T01:18:12.518Z,195.15
2019-06-26T01:22:22.872Z,198.63
2019-06-26T01:26:33.159Z,193.17
2019-06-26T01:30:43.521Z,196.22
2019-06-26T01:34:53.853Z,210.57
2019-06-26T01:39:06.067Z,195.18
2019-06-26T01:43:16.439Z,198.23
2019-06-26T01:47:27.034Z,199.97
2019-06-26T01:51:37.363Z,192.87
2019-06-26T01:55:47.750Z,196.60
2019-06-26T01:59:58.058Z,196.15
2019-06-26T02:04:08.843Z,196.70
2019-06-26T02:08:19.237Z,199.40
2019-06-26T02:12:29.600Z,197.40
2019-06-26T02:16:39.928Z,196.37
2019-06-26T02:20:50.257Z,197.28
2019-06-26T02:25:00.592Z,196.95
2019-06-26T02:29:10.972Z,200.50
2019-06-26T02:33:21.332Z,207.07
2019-06-26T02:37:31.781Z,214.78
2019-06-26T02:41:42.234Z,202.70
2019-06-26T02:45:52.634Z,205.45
2019-06-26T02:50:03.545Z,202.65
2019-06-26T02:54:13.969Z,195.40
2019-06-26T02:58:24.273Z,198.28
2019-06-26T03:02:34.599Z,199.53
2019-06-26T03:06:44.828Z,194.55
2019-06-26T03:10:55.132Z,193.28
2019-06-26T03:15:09.881Z,197.43
2019-06-26T03:19:20.508Z,195.03
2019-06-26T03:23:30.849Z,197.65
2019-06-26T03:27:41.425Z,206.38
2019-06-26T03:31:51.946Z,196.55
2019-06-26T03:36:02.322Z,199.60
2019-06-26T03:40:13.095Z,194.77
2019-06-26T03:44:23.436Z,199.07
2019-06-26T03:48:33.744Z,197.22
2019-06-26T03:52:44.064Z,200.35
2019-06-26T03:56:54.463Z,203.50
2019-06-26T04:01:05.590Z,205.10
2019-06-26T04:05:15.903Z,209.73
2019-06-26T04:09:26.128Z,210.23
2019-06-26T04:13:36.476Z,208.10
2019-06-26T04:17:46.883Z,205.30
2019-06-26T04:21:57.220Z,198.35
2019-06-26T04:26:07.587Z,201.35
2019-06-26T04:30:18.710Z,206.83
2019-06-26T04:34:29.051Z,199.20
2019-06-26T04:38:39.475Z,199.40
2019-06-26T04:42:49.690Z,202.75
2019-06-26T04:47:00.019Z,201.25
2019-06-26T04:51:10.361Z,206.45
2019-06-26T04:55:20.668Z,207.22
2019-06-26T04:59:31.007Z,206.20
2019-06-26T05:03:41.335Z,205.05
2019-06-26T05:07:53.716Z,218.00
2019-06-26T05:12:03.538Z,204.38
2019-06-26T05:16:16.598Z,205.98
2019-06-26T05:20:25.819Z,208.00
2019-06-26T05:24:36.069Z,210.72
2019-06-26T05:28:46.464Z,207.77
2019-06-26T05:32:56.904Z,210.08
2019-06-26T05:37:07.220Z,208.75
2019-06-26T05:41:17.609Z,205.77
2019-06-26T05:45:28.002Z,209.45
2019-06-26T05:49:38.372Z,212.10
2019-06-26T05:53:48.737Z,205.25
2019-06-26T05:57:59.059Z,208.20
2019-06-26T06:02:09.560Z,209.70
2019-06-26T06:06:19.909Z,207.15
2019-06-26T06:10:30.289Z,216.35
2019-06-26T06:14:40.569Z,210.43
2019-06-26T06:18:50.908Z,209.00
2019-06-26T06:23:01.431Z,217.13
2019-06-26T06:27:11.821Z,220.00
2019-06-26T06:31:22.233Z,227.40
2019-06-26T06:35:32.551Z,211.77
2019-06-26T06:39:42.811Z,210.00
2019-06-26T06:43:53.099Z,209.95
2019-06-26T06:48:03.437Z,214.30
2019-06-26T06:52:16.569Z,221.03
2019-06-26T06:56:25.712Z,211.62
2019-06-26T07:00:37.543Z,232.03
2019-06-26T07:04:48.795Z,212.78
2019-06-26T07:08:59.314Z,211.68
2019-06-26T07:13:09.658Z,208.13
2019-06-26T07:17:21.436Z,212.45
2019-06-26T07:21:31.977Z,208.93
2019-06-26T07:25:42.338Z,207.43
2019-06-26T07:29:52.700Z,213.40
2019-06-26T07:34:02.940Z,216.48
2019-06-26T07:38:13.249Z,208.10
2019-06-26T07:42:23.585Z,208.43
2019-06-26T07:46:33.905Z,213.57
2019-06-26T07:50:44.479Z,225.35
2019-06-26T07:54:54.834Z,220.37
2019-06-26T07:59:05.405Z,208.60
2019-06-26T08:03:15.786Z,213.85
2019-06-26T08:07:26.293Z,242.45
2019-06-26T08:11:37.023Z,226.50
2019-06-26T08:15:47.418Z,212.72
2019-06-26T08:19:57.762Z,217.93
2019-06-26T08:24:08.359Z,230.95
2019-06-26T08:28:18.664Z,222.70
2019-06-26T08:32:29.132Z,220.02
2019-06-26T08:36:39.475Z,218.33
2019-06-26T08:40:51.550Z,217.43
2019-06-26T08:45:01.881Z,214.53
2019-06-26T08:49:24.957Z,218.90
2019-06-26T08:53:25.109Z,218.65
2019-06-26T08:57:35.779Z,215.62
2019-06-26T09:01:46.226Z,234.37
2019-06-26T09:05:56.592Z,229.85
2019-06-26T09:10:07.432Z,223.40
2019-06-26T09:14:17.822Z,230.60
2019-06-26T09:18:35.558Z,229.80
2019-06-26T09:22:40.262Z,238.92
2019-06-26T09:26:50.697Z,222.35
2019-06-26T09:31:00.996Z,224.42
2019-06-26T09:35:11.631Z,237.80
2019-06-26T09:39:22.217Z,222.90
2019-06-26T09:43:32.615Z,223.07
2019-06-26T09:47:42.962Z,236.30
2019-06-26T09:51:53.377Z,218.57
2019-06-26T09:56:03.787Z,216.12
2019-06-26T10:00:16.713Z,223.83
2019-06-26T10:04:27.106Z,215.35
2019-06-26T10:08:37.340Z,219.80
2019-06-26T10:12:47.742Z,220.57
2019-06-26T10:16:58.359Z,217.93
2019-06-26T10:21:08.706Z,229.68
2019-06-26T10:25:19.178Z,226.90
2019-06-26T10:29:29.466Z,221.90
2019-06-26T10:33:39.793Z,223.75
2019-06-26T10:37:50.264Z,220.65
2019-06-26T10:42:00.597Z,211.30
2019-06-26T10:46:11.777Z,219.22
2019-06-26T10:50:22.106Z,230.17
2019-06-26T10:54:32.433Z,233.17
2019-06-26T10:58:43.380Z,230.60
2019-06-26T11:02:54.104Z,222.65
2019-06-26T11:07:04.863Z,217.75
2019-06-26T11:11:15.333Z,221.30
2019-06-26T11:15:25.942Z,225.07
2019-06-26T11:19:43.838Z,224.90
2019-06-26T11:23:48.592Z,219.62
2019-06-26T11:27:58.978Z,221.55
2019-06-26T11:32:09.799Z,213.30
2019-06-26T11:36:20.103Z,220.20
2019-06-26T11:40:30.620Z,218.48
2019-06-26T11:44:41.151Z,219.50
2019-06-26T11:48:51.489Z,218.52
2019-06-26T11:53:02.002Z,218.63
2019-06-26T11:57:12.540Z,218.78
2019-06-26T12:01:23.494Z,249.82
2019-06-26T12:05:34.029Z,219.93
2019-06-26T12:09:44.480Z,225.38
2019-06-26T12:13:55.110Z,220.48
2019-06-26T12:18:05.836Z,216.75
2019-06-26T12:22:16.154Z,221.97
2019-06-26T12:26:26.504Z,218.22
2019-06-26T12:30:36.984Z,214.57
2019-06-26T12:34:47.640Z,224.70
2019-06-26T12:38:57.946Z,221.27
2019-06-26T12:43:08.356Z,214.75
2019-06-26T12:47:18.786Z,221.25
2019-06-26T12:51:29.637Z,216.90
2019-06-26T12:55:40.742Z,221.10
2019-06-26T12:59:57.139Z,226.82
2019-06-26T13:04:03.469Z,215.18
2019-06-26T13:08:13.792Z,213.92
2019-06-26T13:12:24.138Z,221.13
2019-06-26T13:16:34.617Z,219.65
2019-06-26T13:20:52.656Z,221.37
2019-06-26T13:24:57.219Z,213.60
2019-06-26T13:29:09.924Z,215.45
2019-06-26T13:33:19.984Z,219.65
2019-06-26T13:37:30.516Z,223.28
2019-06-26T13:41:42.517Z,232.25
2019-06-26T13:45:52.985Z,225.57
2019-06-26T13:50:05.072Z,215.77
2019-06-26T13:54:15.886Z,215.77
2019-06-26T13:58:26.231Z,231.97
2019-06-26T14:02:36.546Z,225.40
2019-06-26T14:06:46.796Z,226.32
2019-06-26T14:10:57.192Z,215.77
2019-06-26T14:15:07.904Z,215.15
2019-06-26T14:19:18.102Z,215.77
2019-06-26T14:23:28.419Z,214.25
2019-06-26T14:27:38.710Z,213.92
2019-06-26T14:31:49.042Z,215.50
2019-06-26T14:35:59.330Z,214.88
2019-06-26T14:40:09.881Z,216.30
2019-06-26T14:44:20.302Z,215.80
2019-06-26T14:48:30.628Z,214.30
2019-06-26T14:52:41.050Z,218.20
2019-06-26T14:56:51.520Z,218.65
2019-06-26T15:01:01.817Z,216.25
2019-06-26T15:05:13.931Z,220.10
2019-06-26T15:09:24.233Z,214.93
2019-06-26T15:13:34.545Z,238.25
2019-06-26T15:17:44.891Z,224.62
2019-06-26T15:21:58.776Z,224.80
2019-06-26T15:26:07.181Z,221.87
2019-06-26T15:30:17.728Z,225.40
2019-06-26T15:34:28.036Z,221.40
2019-06-26T15:38:38.951Z,219.65
2019-06-26T15:42:49.285Z,222.45
2019-06-26T15:46:59.550Z,218.35
2019-06-26T15:51:09.859Z,232.18
2019-06-26T15:55:20.130Z,225.93
2019-06-26T15:59:31.217Z,229.47
2019-06-26T16:03:41.682Z,225.35
2019-06-26T16:07:52.041Z,223.40
2019-06-26T16:12:02.398Z,224.82
2019-06-26T16:16:12.728Z,222.82
2019-06-26T16:20:24.582Z,222.17
2019-06-26T16:24:35.070Z,219.45
2019-06-26T16:28:45.440Z,213.92
2019-06-26T16:32:57.005Z,213.72
2019-06-26T16:37:07.414Z,213.97
2019-06-26T16:41:17.721Z,217.60
2019-06-26T16:45:28.199Z,217.22
2019-06-26T16:49:38.520Z,219.05
2019-06-26T16:53:48.914Z,214.40
2019-06-26T16:57:59.202Z,218.63
2019-06-26T17:02:09.533Z,217.35
2019-06-26T17:06:19.985Z,218.57
2019-06-26T17:10:30.278Z,218.02
2019-06-26T17:14:40.641Z,218.35
2019-06-26T17:18:50.985Z,212.20
2019-06-26T17:23:06.289Z,216.65
2019-06-26T17:27:13.299Z,217.10
2019-06-26T17:31:23.908Z,218.02
2019-06-26T17:35:37.098Z,214.72
2019-06-26T17:39:47.544Z,213.62
2019-06-26T17:43:58.000Z,212.83
2019-06-26T17:48:08.643Z,216.70
2019-06-26T17:52:18.957Z,217.18
2019-06-26T17:56:29.289Z,216.17
2019-06-26T18:00:40.660Z,214.12
2019-06-26T18:04:51.781Z,218.93
2019-06-26T18:09:02.177Z,210.48
2019-06-26T18:13:12.731Z,211.65
2019-06-26T18:17:23.082Z,211.87
2019-06-26T18:21:33.405Z,216.53
2019-06-26T18:25:53.587Z,213.57
2019-06-26T18:29:58.212Z,214.97
2019-06-26T18:34:08.925Z,208.68
2019-06-26T18:38:19.262Z,221.47
2019-06-26T18:42:29.503Z,209.90
2019-06-26T18:46:40.084Z,211.67
2019-06-26T18:50:50.654Z,210.13
2019-06-26T18:55:01.250Z,210.65
2019-06-26T18:59:12.640Z,207.25
2019-06-26T19:03:22.913Z,209.43
2019-06-26T19:07:33.318Z,209.87
2019-06-26T19:11:43.656Z,213.18
2019-06-26T19:15:53.963Z,214.45
2019-06-26T19:20:06.764Z,219.66
2019-06-26T19:24:17.122Z,218.82
2019-06-26T19:28:27.779Z,209.45
2019-06-26T19:32:37.960Z,212.95
2019-06-26T19:36:50.534Z,212.12
2019-06-26T19:41:00.264Z,211.80
2019-06-26T19:45:12.341Z,213.72
2019-06-26T19:49:22.664Z,207.35
2019-06-26T19:53:33.018Z,208.13
2019-06-26T19:57:43.339Z,209.10
2019-06-26T20:01:53.715Z,206.07
2019-06-26T20:06:04.178Z,206.82
2019-06-26T20:10:15.142Z,209.45
2019-06-26T20:14:25.460Z,210.05
2019-06-26T20:18:35.758Z,202.95
2019-06-26T20:22:46.101Z,205.72
2019-06-26T20:26:56.461Z,210.95
2019-06-26T20:31:06.834Z,218.25
2019-06-26T20:35:17.186Z,214.30
2019-06-26T20:39:27.681Z,215.37
2019-06-26T20:43:39.541Z,204.82
2019-06-26T20:47:50.019Z,204.20
2019-06-26T20:52:00.383Z,208.68
2019-06-26T20:56:10.732Z,207.18
2019-06-26T21:00:22.636Z,206.70
2019-06-26T21:04:33.182Z,205.35
2019-06-26T21:08:43.483Z,204.20
2019-06-26T21:12:53.855Z,206.15
2019-06-26T21:17:04.101Z,202.90
2019-06-26T21:21:14.407Z,200.18
2019-06-26T21:25:24.663Z,204.25
2019-06-26T21:29:34.887Z,197.90
2019-06-26T21:33:45.222Z,202.55
2019-06-26T21:37:55.566Z,210.17
2019-06-26T21:42:05.913Z,209.07
2019-06-26T21:46:16.431Z,209.27
2019-06-26T21:50:28.976Z,213.92
2019-06-26T21:54:38.802Z,211.62
2019-06-26T21:58:49.121Z,206.93
2019-06-26T22:02:59.738Z,218.93
2019-06-26T22:07:10.042Z,209.52
2019-06-26T22:11:20.307Z,202.57
2019-06-26T22:15:30.603Z,206.45
2019-06-26T22:19:40.944Z,200.80
2019-06-26T22:23:51.405Z,202.80
2019-06-26T22:28:01.758Z,203.75
2019-06-26T22:32:12.093Z,203.25
2019-06-26T22:36:22.403Z,206.82
2019-06-26T22:40:32.703Z,206.85
2019-06-26T22:44:43.033Z,204.70
2019-06-26T22:48:53.289Z,201.30
2019-06-26T22:53:03.700Z,205.40
2019-06-26T22:57:14.159Z,201.73
2019-06-26T23:01:24.475Z,209.12
2019-06-26T23:05:35.576Z,208.53
2019-06-26T23:09:45.917Z,214.63
2019-06-26T23:13:56.362Z,209.43
2019-06-26T23:18:07.170Z,209.70
2019-06-26T23:22:17.473Z,213.32
2019-06-26T23:26:27.810Z,208.47
2019-06-26T23:30:38.142Z,200.53
2019-06-26T23:34:48.369Z,206.70
2019-06-26T23:38:58.694Z,202.40
2019-06-26T23:43:09.015Z,198.20
2019-06-26T23:47:19.301Z,198.17
2019-06-26T23:51:29.613Z,202.70
2019-06-26T23:55:40.011Z,201.30
2019-06-26T23:59:50.313Z,201.37
